sensor_id;sensor_type;location;lat;lon;timestamp;P1;durP1;ratioP1;P2;durP2;ratioP2
6143;SDS011;3103;49.492;8.474;2023-02-14T00:00:47;16.90;;;11.07;;
6143;SDS011;3103;49.492;8.474;2023-02-14T00:03:14;16.10;;;9.50;;
6143;SDS011;3103;49.492;8.474;2023-02-14T00:05:41;15.20;;;9.37;;
6143;SDS011;3103;49.492;8.474;2023-02-14T00:08:08;16.07;;;10.07;;
6143;SDS011;3103;49.492;8.474;2023-02-14T00:10:34;16.30;;;10.13;;
6143;SDS011;3103;49.492;8.474;2023-02-14T00:13:01;14.73;;;9.80;;
6143;SDS011;3103;49.492;8.474;2023-02-14T00:15:28;20.23;;;10.67;;
6143;SDS011;3103;49.492;8.474;2023-02-14T00:17:56;18.33;;;11.33;;
6143;SDS011;3103;49.492;8.474;2023-02-14T00:20:26;18.27;;;10.23;;
6143;SDS011;3103;49.492;8.474;2023-02-14T00:22:53;16.50;;;10.70;;
6143;SDS011;3103;49.492;8.474;2023-02-14T00:25:20;14.00;;;9.57;;
6143;SDS011;3103;49.492;8.474;2023-02-14T00:27:47;15.47;;;10.23;;
6143;SDS011;3103;49.492;8.474;2023-02-14T00:30:14;19.80;;;10.23;;
6143;SDS011;3103;49.492;8.474;2023-02-14T00:32:41;15.90;;;10.10;;
6143;SDS011;3103;49.492;8.474;2023-02-14T00:35:08;18.00;;;11.77;;
6143;SDS011;3103;49.492;8.474;2023-02-14T00:37:39;15.87;;;10.70;;
6143;SDS011;3103;49.492;8.474;2023-02-14T00:40:06;16.23;;;10.53;;
6143;SDS011;3103;49.492;8.474;2023-02-14T00:42:33;15.43;;;10.10;;
6143;SDS011;3103;49.492;8.474;2023-02-14T00:45:00;16.63;;;10.37;;
6143;SDS011;3103;49.492;8.474;2023-02-14T00:47:29;15.00;;;10.10;;
6143;SDS011;3103;49.492;8.474;2023-02-14T00:49:55;16.67;;;10.60;;
6143;SDS011;3103;49.492;8.474;2023-02-14T00:52:29;16.63;;;10.50;;
6143;SDS011;3103;49.492;8.474;2023-02-14T00:54:56;14.03;;;9.03;;
6143;SDS011;3103;49.492;8.474;2023-02-14T00:57:23;17.10;;;10.07;;
6143;SDS011;3103;49.492;8.474;2023-02-14T00:59:50;16.57;;;10.37;;
6143;SDS011;3103;49.492;8.474;2023-02-14T01:02:17;18.00;;;10.53;;
6143;SDS011;3103;49.492;8.474;2023-02-14T01:04:43;18.63;;;10.90;;
6143;SDS011;3103;49.492;8.474;2023-02-14T01:07:10;20.03;;;10.03;;
6143;SDS011;3103;49.492;8.474;2023-02-14T01:09:37;18.03;;;11.03;;
6143;SDS011;3103;49.492;8.474;2023-02-14T01:12:03;19.37;;;11.37;;
6143;SDS011;3103;49.492;8.474;2023-02-14T01:14:30;15.00;;;9.43;;
6143;SDS011;3103;49.492;8.474;2023-02-14T01:16:57;16.10;;;9.97;;
6143;SDS011;3103;49.492;8.474;2023-02-14T01:19:24;17.83;;;11.17;;
6143;SDS011;3103;49.492;8.474;2023-02-14T01:21:50;17.03;;;11.60;;
6143;SDS011;3103;49.492;8.474;2023-02-14T01:24:21;15.77;;;10.30;;
6143;SDS011;3103;49.492;8.474;2023-02-14T01:26:47;18.57;;;11.50;;
6143;SDS011;3103;49.492;8.474;2023-02-14T01:29:14;16.73;;;10.93;;
6143;SDS011;3103;49.492;8.474;2023-02-14T01:31:41;18.40;;;10.80;;
6143;SDS011;3103;49.492;8.474;2023-02-14T01:34:08;20.33;;;10.43;;
6143;SDS011;3103;49.492;8.474;2023-02-14T01:36:35;16.33;;;10.80;;
6143;SDS011;3103;49.492;8.474;2023-02-14T01:39:05;16.43;;;10.80;;
6143;SDS011;3103;49.492;8.474;2023-02-14T01:41:34;23.10;;;11.47;;
6143;SDS011;3103;49.492;8.474;2023-02-14T01:46:43;21.40;;;12.30;;
6143;SDS011;3103;49.492;8.474;2023-02-14T01:49:14;20.40;;;10.93;;
6143;SDS011;3103;49.492;8.474;2023-02-14T01:51:47;16.90;;;10.87;;
6143;SDS011;3103;49.492;8.474;2023-02-14T01:54:18;20.40;;;12.60;;
6143;SDS011;3103;49.492;8.474;2023-02-14T01:56:48;17.37;;;11.67;;
6143;SDS011;3103;49.492;8.474;2023-02-14T01:59:22;19.87;;;12.10;;
6143;SDS011;3103;49.492;8.474;2023-02-14T02:01:51;22.10;;;12.83;;
6143;SDS011;3103;49.492;8.474;2023-02-14T02:04:23;19.57;;;12.37;;
6143;SDS011;3103;49.492;8.474;2023-02-14T02:06:56;21.00;;;11.87;;
6143;SDS011;3103;49.492;8.474;2023-02-14T02:09:34;22.53;;;12.10;;
6143;SDS011;3103;49.492;8.474;2023-02-14T02:12:05;22.83;;;12.70;;
6143;SDS011;3103;49.492;8.474;2023-02-14T02:14:32;21.30;;;12.87;;
6143;SDS011;3103;49.492;8.474;2023-02-14T02:36:45;22.67;;;12.90;;
6143;SDS011;3103;49.492;8.474;2023-02-14T02:39:23;22.03;;;12.57;;
6143;SDS011;3103;49.492;8.474;2023-02-14T02:42:03;21.97;;;12.70;;
6143;SDS011;3103;49.492;8.474;2023-02-14T02:44:49;22.60;;;12.50;;
6143;SDS011;3103;49.492;8.474;2023-02-14T02:47:27;20.53;;;11.93;;
6143;SDS011;3103;49.492;8.474;2023-02-14T02:56:17;20.67;;;13.07;;
6143;SDS011;3103;49.492;8.474;2023-02-14T02:59:18;23.33;;;13.33;;
6143;SDS011;3103;49.492;8.474;2023-02-14T03:01:55;25.63;;;14.13;;
6143;SDS011;3103;49.492;8.474;2023-02-14T03:04:28;20.83;;;12.87;;
6143;SDS011;3103;49.492;8.474;2023-02-14T03:07:15;20.77;;;12.90;;
6143;SDS011;3103;49.492;8.474;2023-02-14T03:10:12;24.70;;;13.90;;
6143;SDS011;3103;49.492;8.474;2023-02-14T03:12:52;20.03;;;13.27;;
6143;SDS011;3103;49.492;8.474;2023-02-14T03:15:40;19.93;;;12.13;;
6143;SDS011;3103;49.492;8.474;2023-02-14T03:21:53;22.13;;;13.13;;
6143;SDS011;3103;49.492;8.474;2023-02-14T03:27:09;23.10;;;13.77;;
6143;SDS011;3103;49.492;8.474;2023-02-14T03:30:08;27.53;;;14.70;;
6143;SDS011;3103;49.492;8.474;2023-02-14T03:32:50;25.53;;;13.73;;
6143;SDS011;3103;49.492;8.474;2023-02-14T03:38:05;22.87;;;13.03;;
6143;SDS011;3103;49.492;8.474;2023-02-14T03:40:39;23.63;;;14.73;;
6143;SDS011;3103;49.492;8.474;2023-02-14T03:43:13;23.10;;;13.83;;
6143;SDS011;3103;49.492;8.474;2023-02-14T03:45:45;26.10;;;14.67;;
6143;SDS011;3103;49.492;8.474;2023-02-14T03:48:18;23.47;;;13.97;;
6143;SDS011;3103;49.492;8.474;2023-02-14T03:50:49;28.23;;;15.27;;
6143;SDS011;3103;49.492;8.474;2023-02-14T03:53:19;23.03;;;13.40;;
6143;SDS011;3103;49.492;8.474;2023-02-14T03:55:53;22.37;;;12.90;;
6143;SDS011;3103;49.492;8.474;2023-02-14T03:58:26;26.27;;;13.83;;
6143;SDS011;3103;49.492;8.474;2023-02-14T04:00:56;22.43;;;13.20;;
6143;SDS011;3103;49.492;8.474;2023-02-14T04:03:28;21.87;;;13.53;;
6143;SDS011;3103;49.492;8.474;2023-02-14T04:05:57;21.90;;;13.63;;
6143;SDS011;3103;49.492;8.474;2023-02-14T04:08:27;24.13;;;13.43;;
6143;SDS011;3103;49.492;8.474;2023-02-14T04:10:55;25.30;;;13.33;;
6143;SDS011;3103;49.492;8.474;2023-02-14T04:13:26;23.67;;;13.50;;
6143;SDS011;3103;49.492;8.474;2023-02-14T04:15:53;22.97;;;13.43;;
6143;SDS011;3103;49.492;8.474;2023-02-14T04:18:20;24.20;;;13.00;;
6143;SDS011;3103;49.492;8.474;2023-02-14T04:21:05;23.27;;;13.27;;
6143;SDS011;3103;49.492;8.474;2023-02-14T04:23:32;26.33;;;14.37;;
6143;SDS011;3103;49.492;8.474;2023-02-14T04:25:58;24.13;;;13.30;;
6143;SDS011;3103;49.492;8.474;2023-02-14T04:28:25;23.13;;;14.60;;
6143;SDS011;3103;49.492;8.474;2023-02-14T04:30:51;25.70;;;14.60;;
6143;SDS011;3103;49.492;8.474;2023-02-14T04:33:18;25.37;;;14.20;;
6143;SDS011;3103;49.492;8.474;2023-02-14T04:35:45;23.47;;;14.23;;
6143;SDS011;3103;49.492;8.474;2023-02-14T04:38:14;22.23;;;13.47;;
6143;SDS011;3103;49.492;8.474;2023-02-14T04:40:41;24.00;;;13.70;;
6143;SDS011;3103;49.492;8.474;2023-02-14T04:43:07;23.47;;;13.33;;
6143;SDS011;3103;49.492;8.474;2023-02-14T04:45:34;24.53;;;14.27;;
6143;SDS011;3103;49.492;8.474;2023-02-14T04:48:01;22.10;;;14.13;;
6143;SDS011;3103;49.492;8.474;2023-02-14T04:50:27;23.17;;;12.90;;
6143;SDS011;3103;49.492;8.474;2023-02-14T04:52:54;24.97;;;14.20;;
6143;SDS011;3103;49.492;8.474;2023-02-14T04:55:21;26.50;;;15.10;;
6143;SDS011;3103;49.492;8.474;2023-02-14T04:57:47;23.60;;;15.03;;
6143;SDS011;3103;49.492;8.474;2023-02-14T05:00:14;24.23;;;13.57;;
6143;SDS011;3103;49.492;8.474;2023-02-14T05:02:41;29.63;;;15.70;;
6143;SDS011;3103;49.492;8.474;2023-02-14T05:05:08;27.27;;;15.77;;
6143;SDS011;3103;49.492;8.474;2023-02-14T05:07:34;25.67;;;14.77;;
6143;SDS011;3103;49.492;8.474;2023-02-14T05:10:02;27.27;;;14.47;;
6143;SDS011;3103;49.492;8.474;2023-02-14T05:12:30;25.10;;;14.70;;
6143;SDS011;3103;49.492;8.474;2023-02-14T05:14:57;24.00;;;14.63;;
6143;SDS011;3103;49.492;8.474;2023-02-14T05:17:24;26.10;;;14.90;;
6143;SDS011;3103;49.492;8.474;2023-02-14T05:19:50;25.60;;;14.67;;
6143;SDS011;3103;49.492;8.474;2023-02-14T05:22:17;29.33;;;16.20;;
6143;SDS011;3103;49.492;8.474;2023-02-14T05:24:44;21.83;;;13.93;;
6143;SDS011;3103;49.492;8.474;2023-02-14T05:27:10;26.37;;;15.27;;
6143;SDS011;3103;49.492;8.474;2023-02-14T05:29:37;26.20;;;14.27;;
6143;SDS011;3103;49.492;8.474;2023-02-14T05:32:04;25.20;;;14.50;;
6143;SDS011;3103;49.492;8.474;2023-02-14T05:34:30;30.93;;;16.07;;
6143;SDS011;3103;49.492;8.474;2023-02-14T05:36:57;26.40;;;15.20;;
6143;SDS011;3103;49.492;8.474;2023-02-14T05:39:23;26.30;;;14.63;;
6143;SDS011;3103;49.492;8.474;2023-02-14T05:41:50;26.53;;;14.87;;
6143;SDS011;3103;49.492;8.474;2023-02-14T05:44:17;26.63;;;15.30;;
6143;SDS011;3103;49.492;8.474;2023-02-14T05:46:43;27.77;;;15.60;;
6143;SDS011;3103;49.492;8.474;2023-02-14T05:49:10;26.50;;;15.10;;
6143;SDS011;3103;49.492;8.474;2023-02-14T05:51:37;25.67;;;14.83;;
6143;SDS011;3103;49.492;8.474;2023-02-14T05:54:03;26.60;;;15.30;;
6143;SDS011;3103;49.492;8.474;2023-02-14T05:56:30;25.30;;;14.33;;
6143;SDS011;3103;49.492;8.474;2023-02-14T05:58:57;28.10;;;15.50;;
6143;SDS011;3103;49.492;8.474;2023-02-14T06:01:23;27.63;;;15.77;;
6143;SDS011;3103;49.492;8.474;2023-02-14T06:03:50;26.30;;;14.70;;
6143;SDS011;3103;49.492;8.474;2023-02-14T06:06:17;25.90;;;14.17;;
6143;SDS011;3103;49.492;8.474;2023-02-14T06:08:43;23.10;;;13.70;;
6143;SDS011;3103;49.492;8.474;2023-02-14T06:11:10;23.17;;;14.17;;
6143;SDS011;3103;49.492;8.474;2023-02-14T06:13:37;24.97;;;14.77;;
6143;SDS011;3103;49.492;8.474;2023-02-14T06:16:05;22.43;;;13.40;;
6143;SDS011;3103;49.492;8.474;2023-02-14T06:18:32;23.00;;;14.07;;
6143;SDS011;3103;49.492;8.474;2023-02-14T06:20:59;24.20;;;14.57;;
6143;SDS011;3103;49.492;8.474;2023-02-14T06:23:26;22.90;;;12.87;;
6143;SDS011;3103;49.492;8.474;2023-02-14T06:25:53;27.13;;;14.80;;
6143;SDS011;3103;49.492;8.474;2023-02-14T06:28:19;27.83;;;14.33;;
6143;SDS011;3103;49.492;8.474;2023-02-14T06:30:46;24.50;;;14.40;;
6143;SDS011;3103;49.492;8.474;2023-02-14T06:33:13;24.30;;;14.10;;
6143;SDS011;3103;49.492;8.474;2023-02-14T06:35:40;23.60;;;14.10;;
6143;SDS011;3103;49.492;8.474;2023-02-14T06:38:06;24.43;;;14.37;;
6143;SDS011;3103;49.492;8.474;2023-02-14T06:40:33;27.07;;;14.77;;
6143;SDS011;3103;49.492;8.474;2023-02-14T06:43:00;25.97;;;14.50;;
6143;SDS011;3103;49.492;8.474;2023-02-14T06:45:26;24.53;;;14.20;;
6143;SDS011;3103;49.492;8.474;2023-02-14T06:47:53;24.83;;;13.63;;
6143;SDS011;3103;49.492;8.474;2023-02-14T06:50:20;22.67;;;13.83;;
6143;SDS011;3103;49.492;8.474;2023-02-14T06:52:46;25.93;;;13.60;;
6143;SDS011;3103;49.492;8.474;2023-02-14T06:55:13;27.40;;;13.53;;
6143;SDS011;3103;49.492;8.474;2023-02-14T06:57:40;26.10;;;14.73;;
6143;SDS011;3103;49.492;8.474;2023-02-14T07:00:07;23.90;;;13.90;;
6143;SDS011;3103;49.492;8.474;2023-02-14T07:02:35;25.50;;;13.87;;
6143;SDS011;3103;49.492;8.474;2023-02-14T07:05:02;28.03;;;14.80;;
6143;SDS011;3103;49.492;8.474;2023-02-14T07:07:29;26.97;;;13.97;;
6143;SDS011;3103;49.492;8.474;2023-02-14T07:09:56;26.87;;;14.23;;
6143;SDS011;3103;49.492;8.474;2023-02-14T07:12:23;25.47;;;13.07;;
6143;SDS011;3103;49.492;8.474;2023-02-14T07:14:49;26.53;;;14.33;;
6143;SDS011;3103;49.492;8.474;2023-02-14T07:17:16;27.70;;;15.43;;
6143;SDS011;3103;49.492;8.474;2023-02-14T07:19:43;25.37;;;13.63;;
6143;SDS011;3103;49.492;8.474;2023-02-14T07:22:09;25.60;;;13.47;;
6143;SDS011;3103;49.492;8.474;2023-02-14T07:24:36;26.20;;;13.20;;
6143;SDS011;3103;49.492;8.474;2023-02-14T07:27:03;32.47;;;14.80;;
6143;SDS011;3103;49.492;8.474;2023-02-14T07:29:29;21.33;;;13.93;;
6143;SDS011;3103;49.492;8.474;2023-02-14T07:31:56;20.40;;;12.63;;
6143;SDS011;3103;49.492;8.474;2023-02-14T07:34:23;18.90;;;11.87;;
6143;SDS011;3103;49.492;8.474;2023-02-14T07:36:50;27.13;;;12.83;;
6143;SDS011;3103;49.492;8.474;2023-02-14T07:39:16;25.50;;;13.93;;
6143;SDS011;3103;49.492;8.474;2023-02-14T07:41:43;25.07;;;14.17;;
6143;SDS011;3103;49.492;8.474;2023-02-14T07:44:09;24.40;;;13.90;;
6143;SDS011;3103;49.492;8.474;2023-02-14T07:46:37;25.13;;;14.17;;
6143;SDS011;3103;49.492;8.474;2023-02-14T07:49:03;25.00;;;15.10;;
6143;SDS011;3103;49.492;8.474;2023-02-14T07:51:30;29.33;;;15.00;;
6143;SDS011;3103;49.492;8.474;2023-02-14T07:53:57;31.83;;;16.30;;
6143;SDS011;3103;49.492;8.474;2023-02-14T07:56:23;26.27;;;14.73;;
6143;SDS011;3103;49.492;8.474;2023-02-14T07:58:50;26.87;;;14.33;;
6143;SDS011;3103;49.492;8.474;2023-02-14T08:01:17;26.80;;;14.77;;
6143;SDS011;3103;49.492;8.474;2023-02-14T08:03:43;28.73;;;14.93;;
6143;SDS011;3103;49.492;8.474;2023-02-14T08:06:15;29.03;;;15.27;;
6143;SDS011;3103;49.492;8.474;2023-02-14T08:08:43;27.33;;;14.70;;
6143;SDS011;3103;49.492;8.474;2023-02-14T08:11:11;25.97;;;14.90;;
6143;SDS011;3103;49.492;8.474;2023-02-14T08:13:58;27.33;;;14.53;;
6143;SDS011;3103;49.492;8.474;2023-02-14T08:16:25;24.60;;;14.67;;
6143;SDS011;3103;49.492;8.474;2023-02-14T08:18:52;26.07;;;15.30;;
6143;SDS011;3103;49.492;8.474;2023-02-14T08:21:18;28.63;;;15.50;;
6143;SDS011;3103;49.492;8.474;2023-02-14T08:23:46;28.77;;;15.03;;
6143;SDS011;3103;49.492;8.474;2023-02-14T08:26:13;28.33;;;15.77;;
6143;SDS011;3103;49.492;8.474;2023-02-14T08:28:39;27.43;;;16.33;;
6143;SDS011;3103;49.492;8.474;2023-02-14T08:31:06;34.93;;;17.53;;
6143;SDS011;3103;49.492;8.474;2023-02-14T08:33:33;30.77;;;16.30;;
6143;SDS011;3103;49.492;8.474;2023-02-14T08:36:00;31.80;;;16.33;;
6143;SDS011;3103;49.492;8.474;2023-02-14T08:38:28;27.43;;;15.90;;
6143;SDS011;3103;49.492;8.474;2023-02-14T08:40:58;28.03;;;16.00;;
6143;SDS011;3103;49.492;8.474;2023-02-14T08:43:28;28.60;;;16.63;;
6143;SDS011;3103;49.492;8.474;2023-02-14T08:45:54;32.67;;;17.33;;
6143;SDS011;3103;49.492;8.474;2023-02-14T08:48:21;34.30;;;16.70;;
6143;SDS011;3103;49.492;8.474;2023-02-14T08:50:48;29.83;;;17.40;;
6143;SDS011;3103;49.492;8.474;2023-02-14T08:53:15;34.13;;;17.37;;
6143;SDS011;3103;49.492;8.474;2023-02-14T08:55:42;36.20;;;17.53;;
6143;SDS011;3103;49.492;8.474;2023-02-14T08:58:09;31.87;;;16.80;;
6143;SDS011;3103;49.492;8.474;2023-02-14T09:00:36;34.77;;;18.37;;
6143;SDS011;3103;49.492;8.474;2023-02-14T09:03:02;34.60;;;19.07;;
6143;SDS011;3103;49.492;8.474;2023-02-14T09:05:29;32.40;;;19.27;;
6143;SDS011;3103;49.492;8.474;2023-02-14T09:07:56;38.73;;;20.07;;
6143;SDS011;3103;49.492;8.474;2023-02-14T09:10:23;46.23;;;21.50;;
6143;SDS011;3103;49.492;8.474;2023-02-14T09:12:51;37.20;;;20.13;;
6143;SDS011;3103;49.492;8.474;2023-02-14T09:15:18;36.27;;;18.40;;
6143;SDS011;3103;49.492;8.474;2023-02-14T09:17:45;37.63;;;19.90;;
6143;SDS011;3103;49.492;8.474;2023-02-14T09:20:13;34.07;;;19.47;;
6143;SDS011;3103;49.492;8.474;2023-02-14T09:22:41;32.93;;;18.30;;
6143;SDS011;3103;49.492;8.474;2023-02-14T09:25:09;33.23;;;19.23;;
6143;SDS011;3103;49.492;8.474;2023-02-14T09:27:36;39.43;;;20.53;;
6143;SDS011;3103;49.492;8.474;2023-02-14T09:30:04;39.23;;;20.50;;
6143;SDS011;3103;49.492;8.474;2023-02-14T09:32:32;36.73;;;20.17;;
6143;SDS011;3103;49.492;8.474;2023-02-14T09:34:59;34.80;;;19.77;;
6143;SDS011;3103;49.492;8.474;2023-02-14T09:37:45;36.77;;;18.83;;
6143;SDS011;3103;49.492;8.474;2023-02-14T09:40:30;36.77;;;18.70;;
6143;SDS011;3103;49.492;8.474;2023-02-14T09:42:59;36.43;;;19.17;;
6143;SDS011;3103;49.492;8.474;2023-02-14T09:45:32;32.67;;;18.13;;
6143;SDS011;3103;49.492;8.474;2023-02-14T09:48:01;35.00;;;19.23;;
6143;SDS011;3103;49.492;8.474;2023-02-14T09:50:38;34.80;;;19.27;;
6143;SDS011;3103;49.492;8.474;2023-02-14T09:53:18;28.03;;;16.50;;
6143;SDS011;3103;49.492;8.474;2023-02-14T09:56:11;31.37;;;16.93;;
6143;SDS011;3103;49.492;8.474;2023-02-14T10:01:35;26.47;;;14.17;;
6143;SDS011;3103;49.492;8.474;2023-02-14T10:09:51;29.17;;;14.40;;
6143;SDS011;3103;49.492;8.474;2023-02-14T10:12:46;25.47;;;14.20;;
6143;SDS011;3103;49.492;8.474;2023-02-14T10:15:23;28.80;;;14.73;;
6143;SDS011;3103;49.492;8.474;2023-02-14T10:18:00;30.53;;;15.47;;
6143;SDS011;3103;49.492;8.474;2023-02-14T10:20:33;27.83;;;15.50;;
6143;SDS011;3103;49.492;8.474;2023-02-14T10:23:21;29.10;;;15.67;;
6143;SDS011;3103;49.492;8.474;2023-02-14T10:26:00;30.63;;;14.97;;
6143;SDS011;3103;49.492;8.474;2023-02-14T10:28:34;24.57;;;14.60;;
6143;SDS011;3103;49.492;8.474;2023-02-14T10:31:21;23.77;;;13.37;;
6143;SDS011;3103;49.492;8.474;2023-02-14T10:39:25;27.03;;;15.50;;
6143;SDS011;3103;49.492;8.474;2023-02-14T10:42:05;27.87;;;14.50;;
6143;SDS011;3103;49.492;8.474;2023-02-14T10:44:38;21.33;;;13.37;;
6143;SDS011;3103;49.492;8.474;2023-02-14T10:52:37;34.53;;;15.33;;
6143;SDS011;3103;49.492;8.474;2023-02-14T10:55:17;25.13;;;14.43;;
6143;SDS011;3103;49.492;8.474;2023-02-14T10:57:58;33.13;;;15.80;;
6143;SDS011;3103;49.492;8.474;2023-02-14T11:00:36;29.77;;;15.97;;
6143;SDS011;3103;49.492;8.474;2023-02-14T11:03:08;30.53;;;16.23;;
6143;SDS011;3103;49.492;8.474;2023-02-14T11:05:46;28.60;;;16.87;;
6143;SDS011;3103;49.492;8.474;2023-02-14T11:08:24;31.43;;;15.73;;
6143;SDS011;3103;49.492;8.474;2023-02-14T11:11:09;40.93;;;18.97;;
6143;SDS011;3103;49.492;8.474;2023-02-14T11:13:41;33.57;;;19.70;;
6143;SDS011;3103;49.492;8.474;2023-02-14T11:16:09;33.57;;;17.43;;
6143;SDS011;3103;49.492;8.474;2023-02-14T11:18:38;31.93;;;16.53;;
6143;SDS011;3103;49.492;8.474;2023-02-14T11:21:10;34.97;;;19.00;;
6143;SDS011;3103;49.492;8.474;2023-02-14T11:23:43;35.93;;;19.57;;
6143;SDS011;3103;49.492;8.474;2023-02-14T11:26:23;38.50;;;20.03;;
6143;SDS011;3103;49.492;8.474;2023-02-14T11:28:55;53.57;;;29.47;;
6143;SDS011;3103;49.492;8.474;2023-02-14T11:31:26;41.67;;;23.17;;
6143;SDS011;3103;49.492;8.474;2023-02-14T11:33:55;37.50;;;19.47;;
6143;SDS011;3103;49.492;8.474;2023-02-14T11:36:24;38.60;;;20.17;;
6143;SDS011;3103;49.492;8.474;2023-02-14T11:39:06;36.10;;;19.07;;
6143;SDS011;3103;49.492;8.474;2023-02-14T11:41:48;32.33;;;17.93;;
6143;SDS011;3103;49.492;8.474;2023-02-14T11:44:22;38.57;;;20.30;;
6143;SDS011;3103;49.492;8.474;2023-02-14T11:46:52;39.83;;;19.70;;
6143;SDS011;3103;49.492;8.474;2023-02-14T11:49:22;34.63;;;19.30;;
6143;SDS011;3103;49.492;8.474;2023-02-14T11:51:54;37.00;;;20.80;;
6143;SDS011;3103;49.492;8.474;2023-02-14T11:54:29;39.07;;;20.57;;
6143;SDS011;3103;49.492;8.474;2023-02-14T11:57:01;39.17;;;21.70;;
6143;SDS011;3103;49.492;8.474;2023-02-14T11:59:32;39.27;;;20.43;;
6143;SDS011;3103;49.492;8.474;2023-02-14T12:02:21;37.73;;;19.80;;
6143;SDS011;3103;49.492;8.474;2023-02-14T12:07:53;36.27;;;20.10;;
6143;SDS011;3103;49.492;8.474;2023-02-14T12:12:55;30.93;;;18.93;;
6143;SDS011;3103;49.492;8.474;2023-02-14T12:18:28;43.53;;;21.30;;
6143;SDS011;3103;49.492;8.474;2023-02-14T12:21:09;36.13;;;18.70;;
6143;SDS011;3103;49.492;8.474;2023-02-14T12:29:32;35.20;;;20.50;;
6143;SDS011;3103;49.492;8.474;2023-02-14T12:32:10;36.07;;;19.03;;
6143;SDS011;3103;49.492;8.474;2023-02-14T12:34:43;45.20;;;19.23;;
6143;SDS011;3103;49.492;8.474;2023-02-14T12:37:26;37.47;;;19.07;;
6143;SDS011;3103;49.492;8.474;2023-02-14T12:45:24;34.57;;;19.70;;
6143;SDS011;3103;49.492;8.474;2023-02-14T12:56:06;36.80;;;18.53;;
6143;SDS011;3103;49.492;8.474;2023-02-14T13:04:21;37.73;;;21.80;;
6143;SDS011;3103;49.492;8.474;2023-02-14T13:07:51;38.20;;;21.07;;
6143;SDS011;3103;49.492;8.474;2023-02-14T13:10:31;40.97;;;23.30;;
6143;SDS011;3103;49.492;8.474;2023-02-14T13:16:06;43.90;;;22.30;;
6143;SDS011;3103;49.492;8.474;2023-02-14T13:18:59;40.90;;;22.73;;
6143;SDS011;3103;49.492;8.474;2023-02-14T13:21:44;38.57;;;21.93;;
6143;SDS011;3103;49.492;8.474;2023-02-14T13:24:20;36.17;;;20.83;;
6143;SDS011;3103;49.492;8.474;2023-02-14T13:26:51;37.73;;;21.47;;
6143;SDS011;3103;49.492;8.474;2023-02-14T13:29:22;40.77;;;19.97;;
6143;SDS011;3103;49.492;8.474;2023-02-14T13:31:53;42.20;;;22.67;;
6143;SDS011;3103;49.492;8.474;2023-02-14T13:34:33;38.23;;;20.93;;
6143;SDS011;3103;49.492;8.474;2023-02-14T13:37:05;41.40;;;21.63;;
6143;SDS011;3103;49.492;8.474;2023-02-14T13:39:39;38.33;;;20.37;;
6143;SDS011;3103;49.492;8.474;2023-02-14T13:42:11;37.47;;;19.93;;
6143;SDS011;3103;49.492;8.474;2023-02-14T13:44:49;33.27;;;19.63;;
6143;SDS011;3103;49.492;8.474;2023-02-14T13:47:18;39.47;;;20.43;;
6143;SDS011;3103;49.492;8.474;2023-02-14T13:49:49;33.47;;;19.63;;
6143;SDS011;3103;49.492;8.474;2023-02-14T13:52:40;40.10;;;19.97;;
6143;SDS011;3103;49.492;8.474;2023-02-14T13:55:12;39.70;;;20.87;;
6143;SDS011;3103;49.492;8.474;2023-02-14T13:57:42;44.50;;;25.27;;
6143;SDS011;3103;49.492;8.474;2023-02-14T14:02:46;61.47;;;32.33;;
6143;SDS011;3103;49.492;8.474;2023-02-14T14:11:03;42.33;;;23.90;;
6143;SDS011;3103;49.492;8.474;2023-02-14T14:21:25;41.47;;;23.77;;
6143;SDS011;3103;49.492;8.474;2023-02-14T14:26:47;40.27;;;22.00;;
6143;SDS011;3103;49.492;8.474;2023-02-14T14:29:36;36.67;;;20.40;;
6143;SDS011;3103;49.492;8.474;2023-02-14T14:32:07;38.87;;;21.83;;
6143;SDS011;3103;49.492;8.474;2023-02-14T14:34:35;38.83;;;21.40;;
6143;SDS011;3103;49.492;8.474;2023-02-14T14:37:03;43.20;;;21.43;;
6143;SDS011;3103;49.492;8.474;2023-02-14T14:39:40;43.23;;;22.07;;
6143;SDS011;3103;49.492;8.474;2023-02-14T14:42:14;40.67;;;22.67;;
6143;SDS011;3103;49.492;8.474;2023-02-14T14:44:50;40.97;;;22.00;;
6143;SDS011;3103;49.492;8.474;2023-02-14T14:47:22;37.87;;;20.93;;
6143;SDS011;3103;49.492;8.474;2023-02-14T14:50:05;37.67;;;21.10;;
6143;SDS011;3103;49.492;8.474;2023-02-14T14:52:37;42.47;;;21.07;;
6143;SDS011;3103;49.492;8.474;2023-02-14T14:55:07;40.33;;;20.50;;
6143;SDS011;3103;49.492;8.474;2023-02-14T14:57:41;38.97;;;20.70;;
6143;SDS011;3103;49.492;8.474;2023-02-14T15:00:16;38.90;;;21.27;;
6143;SDS011;3103;49.492;8.474;2023-02-14T15:03:01;42.40;;;21.53;;
6143;SDS011;3103;49.492;8.474;2023-02-14T15:05:38;35.77;;;20.13;;
6143;SDS011;3103;49.492;8.474;2023-02-14T15:10:52;37.03;;;20.47;;
6143;SDS011;3103;49.492;8.474;2023-02-14T15:13:45;42.20;;;21.97;;
6143;SDS011;3103;49.492;8.474;2023-02-14T15:16:21;37.13;;;21.37;;
6143;SDS011;3103;49.492;8.474;2023-02-14T15:18:57;39.10;;;21.43;;
6143;SDS011;3103;49.492;8.474;2023-02-14T15:21:26;42.57;;;20.43;;
6143;SDS011;3103;49.492;8.474;2023-02-14T15:23:54;41.17;;;21.33;;
6143;SDS011;3103;49.492;8.474;2023-02-14T15:26:29;38.13;;;20.50;;
6143;SDS011;3103;49.492;8.474;2023-02-14T15:29:01;35.50;;;20.40;;
6143;SDS011;3103;49.492;8.474;2023-02-14T15:31:33;39.60;;;20.93;;
6143;SDS011;3103;49.492;8.474;2023-02-14T15:34:04;36.53;;;20.03;;
6143;SDS011;3103;49.492;8.474;2023-02-14T15:36:33;47.23;;;21.70;;
6143;SDS011;3103;49.492;8.474;2023-02-14T15:39:02;37.90;;;20.67;;
6143;SDS011;3103;49.492;8.474;2023-02-14T15:41:31;41.03;;;21.87;;
6143;SDS011;3103;49.492;8.474;2023-02-14T15:43:59;39.40;;;20.77;;
6143;SDS011;3103;49.492;8.474;2023-02-14T15:46:31;48.87;;;26.40;;
6143;SDS011;3103;49.492;8.474;2023-02-14T15:49:09;42.17;;;22.67;;
6143;SDS011;3103;49.492;8.474;2023-02-14T15:51:40;46.13;;;24.77;;
6143;SDS011;3103;49.492;8.474;2023-02-14T15:54:18;44.67;;;25.73;;
6143;SDS011;3103;49.492;8.474;2023-02-14T15:56:57;40.80;;;23.30;;
6143;SDS011;3103;49.492;8.474;2023-02-14T15:59:25;41.73;;;22.00;;
6143;SDS011;3103;49.492;8.474;2023-02-14T16:02:00;39.47;;;21.63;;
6143;SDS011;3103;49.492;8.474;2023-02-14T16:04:32;44.70;;;23.83;;
6143;SDS011;3103;49.492;8.474;2023-02-14T16:07:18;49.23;;;26.80;;
6143;SDS011;3103;49.492;8.474;2023-02-14T16:09:50;53.20;;;21.77;;
6143;SDS011;3103;49.492;8.474;2023-02-14T16:12:39;40.13;;;21.40;;
6143;SDS011;3103;49.492;8.474;2023-02-14T16:15:18;38.90;;;20.90;;
6143;SDS011;3103;49.492;8.474;2023-02-14T16:17:47;42.00;;;22.87;;
6143;SDS011;3103;49.492;8.474;2023-02-14T16:22:48;39.83;;;20.87;;
6143;SDS011;3103;49.492;8.474;2023-02-14T16:25:16;38.90;;;22.57;;
6143;SDS011;3103;49.492;8.474;2023-02-14T16:27:44;37.40;;;19.63;;
6143;SDS011;3103;49.492;8.474;2023-02-14T16:30:15;35.53;;;20.67;;
6143;SDS011;3103;49.492;8.474;2023-02-14T16:32:48;39.27;;;21.87;;
6143;SDS011;3103;49.492;8.474;2023-02-14T16:35:17;36.43;;;21.10;;
6143;SDS011;3103;49.492;8.474;2023-02-14T16:37:46;38.67;;;21.50;;
6143;SDS011;3103;49.492;8.474;2023-02-14T16:40:16;39.10;;;21.03;;
6143;SDS011;3103;49.492;8.474;2023-02-14T16:42:47;41.77;;;21.37;;
6143;SDS011;3103;49.492;8.474;2023-02-14T16:45:14;42.87;;;22.07;;
6143;SDS011;3103;49.492;8.474;2023-02-14T16:47:47;42.23;;;22.03;;
6143;SDS011;3103;49.492;8.474;2023-02-14T16:50:15;44.07;;;21.73;;
6143;SDS011;3103;49.492;8.474;2023-02-14T16:52:42;45.23;;;24.10;;
6143;SDS011;3103;49.492;8.474;2023-02-14T16:55:14;41.40;;;21.73;;
6143;SDS011;3103;49.492;8.474;2023-02-14T16:57:43;40.10;;;21.47;;
6143;SDS011;3103;49.492;8.474;2023-02-14T17:00:13;43.27;;;22.17;;
6143;SDS011;3103;49.492;8.474;2023-02-14T17:02:40;40.43;;;20.83;;
6143;SDS011;3103;49.492;8.474;2023-02-14T17:05:09;40.17;;;20.67;;
6143;SDS011;3103;49.492;8.474;2023-02-14T17:07:37;45.80;;;21.63;;
6143;SDS011;3103;49.492;8.474;2023-02-14T17:10:10;44.13;;;22.83;;